Hefei Luogang International Airport
ZSOF : now visible

Airfield :











YOU CAN JOIN US ON...

 
LOGIN :

Register | Disclaimer

   EN    FR    IT 

 









Legend :    VFR   Marginal VFR   IFR   Intensive IFR   Very Intensive IFR
Visi :
Ceiling :
>= 8 km
>= 3000ft
5 to 8 km
1000 to 3000 ft
1500m to 5 km
500 to 1000 ft
800 to 1500m
200 to 500 ft
< 800m
< 200 ft
Symbols :   Thunderstorms  Fog  Heavy snow  Heavy precipitations  Wind > 20 kt






- Airport Elevation : 108 ft
- IATA code : HFE


ZSOF - Hefei Luogang International

CURRENT METAR :
  • 232000Z 16005MPS CAVOK 13/07 Q1016 NOSIG

EXPIRED METARs :
  • 231900Z 15005MPS CAVOK 14/06 Q1017 NOSIG
  • 231800Z 15005MPS CAVOK 14/06 Q1018 NOSIG

TAF TAF ZSOF
Valid from the 23 at 18:00 until the 24 at 18:00 UTC


231510Z 2318/2418 17004MPS 3000 HZ NSC TX23/2406Z TN11/2322Z
BECMG 2412/2413 2500 -RA BR
BECMG 2413/2414 3000



MET'MAP, your aeronautical weather chart ! - Copyright ORBIFLY December 2007 - Disclaimer

ORBIFLY MET'MAP TEAM :

Programming & Development : Alexandra Zaïnal
Concept & original design : Baudouin d'Aumeries
Assistance for programming : Marc-Olivier Méhu
Technical & hardware support : Manuel Goepfert

Contact : metmap@orbifly.com




SOURCES & CREDITS :

   NOAA       Earth
Advisory